createdAt,value
2018-12-15T00:02:21.735Z,64.48
2018-12-15T00:04:52.394Z,64.28
2018-12-15T00:07:23.038Z,63.65
2018-12-15T00:09:51.774Z,63.63
2018-12-15T00:12:20.430Z,63.60
2018-12-15T00:14:49.158Z,64.13
2018-12-15T00:17:17.934Z,64.44
2018-12-15T00:19:46.657Z,63.74
2018-12-15T00:22:15.317Z,63.78
2018-12-15T00:24:44.038Z,63.88
2018-12-15T00:27:12.774Z,63.90
2018-12-15T00:29:41.666Z,64.08
2018-12-15T00:32:10.386Z,64.58
2018-12-15T00:34:39.119Z,64.55
2018-12-15T00:37:07.850Z,64.71
2018-12-15T00:39:36.500Z,64.69
2018-12-15T00:42:05.234Z,64.03
2018-12-15T00:44:33.946Z,64.01
2018-12-15T00:47:02.722Z,63.77
2018-12-15T00:49:31.378Z,64.14
2018-12-15T00:52:00.142Z,64.20
2018-12-15T00:54:28.863Z,64.38
2018-12-15T00:56:57.527Z,63.71
2018-12-15T00:59:26.192Z,64.16
2018-12-15T01:01:54.904Z,63.35
2018-12-15T01:04:23.614Z,63.95
2018-12-15T01:06:52.366Z,64.17
2018-12-15T01:09:21.102Z,64.18
2018-12-15T01:11:49.832Z,64.83
2018-12-15T01:14:18.487Z,65.00
2018-12-15T01:16:47.183Z,64.88
2018-12-15T01:19:15.894Z,64.59
2018-12-15T01:21:44.570Z,64.46
2018-12-15T01:24:13.289Z,64.59
2018-12-15T01:26:42.030Z,64.81
2018-12-15T01:29:11.783Z,65.42
2018-12-15T01:31:40.498Z,65.08
2018-12-15T01:34:09.226Z,64.84
2018-12-15T01:36:37.888Z,64.87
2018-12-15T01:39:08.354Z,64.65
2018-12-15T01:41:37.173Z,65.21
2018-12-15T01:44:05.884Z,65.43
2018-12-15T01:46:34.583Z,65.24
2018-12-15T01:49:03.335Z,65.55
2018-12-15T01:51:32.106Z,66.09
2018-12-15T01:54:00.806Z,65.96
2018-12-15T01:56:29.464Z,65.88
2018-12-15T01:58:58.166Z,66.21
2018-12-15T02:01:26.881Z,65.58
2018-12-15T02:03:55.573Z,65.12
2018-12-15T02:06:24.291Z,65.18
2018-12-15T02:08:53.043Z,65.26
2018-12-15T02:11:23.697Z,65.71
2018-12-15T02:13:53.515Z,65.90
2018-12-15T02:16:22.226Z,65.82
2018-12-15T02:18:50.943Z,65.44
2018-12-15T02:21:19.639Z,65.68
2018-12-15T02:23:48.335Z,65.81
2018-12-15T02:26:17.042Z,65.26
2018-12-15T02:28:45.759Z,65.32
2018-12-15T02:31:14.450Z,64.87
2018-12-15T02:33:44.171Z,64.65
2018-12-15T02:36:12.875Z,64.60
2018-12-15T02:38:41.573Z,64.30
2018-12-15T02:41:10.296Z,64.64
2018-12-15T02:43:39.022Z,64.48
2018-12-15T02:46:07.756Z,64.09
2018-12-15T02:48:36.478Z,64.79
2018-12-15T02:51:05.194Z,64.19
2018-12-15T02:53:33.923Z,63.74
2018-12-15T02:56:02.590Z,64.29
2018-12-15T02:58:31.304Z,64.25
2018-12-15T03:01:00.011Z,64.71
2018-12-15T03:03:28.742Z,64.60
2018-12-15T03:05:57.450Z,64.56
2018-12-15T03:08:26.174Z,64.98
2018-12-15T03:10:54.827Z,64.79
2018-12-15T03:13:23.538Z,64.56
2018-12-15T03:15:52.260Z,64.94
2018-12-15T03:18:21.066Z,65.27
2018-12-15T03:21:01.198Z,66.04
2018-12-15T03:23:29.859Z,66.25
2018-12-15T03:25:58.834Z,66.08
2018-12-15T03:28:27.508Z,65.79
2018-12-15T03:30:56.226Z,65.90
2018-12-15T03:33:25.008Z,66.10
2018-12-15T03:35:53.734Z,65.36
2018-12-15T03:38:22.450Z,65.09
2018-12-15T03:40:51.166Z,65.68
2018-12-15T03:43:19.916Z,65.31
2018-12-15T03:45:48.612Z,65.34
2018-12-15T03:48:17.311Z,65.03
2018-12-15T03:50:46.019Z,65.23
2018-12-15T03:53:14.745Z,65.53
2018-12-15T03:55:43.444Z,65.08
2018-12-15T03:58:12.213Z,65.82
2018-12-15T04:00:40.925Z,65.48
2018-12-15T04:03:09.587Z,65.52
2018-12-15T04:05:38.302Z,65.21
2018-12-15T04:08:06.989Z,65.87
2018-12-15T04:10:35.997Z,65.45
2018-12-15T04:13:04.800Z,65.62
2018-12-15T04:15:33.559Z,65.04
2018-12-15T04:18:03.858Z,65.14
2018-12-15T04:20:32.809Z,64.85
2018-12-15T04:23:01.547Z,65.46
2018-12-15T04:25:30.326Z,65.51
2018-12-15T04:27:59.031Z,65.63
2018-12-15T04:30:27.879Z,66.27
2018-12-15T04:32:56.558Z,66.15
2018-12-15T04:35:25.386Z,66.25
2018-12-15T04:37:54.111Z,66.09
2018-12-15T04:40:23.271Z,66.59
2018-12-15T04:42:51.990Z,66.75
2018-12-15T04:45:20.807Z,66.28
2018-12-15T04:47:49.647Z,66.06
2018-12-15T04:50:18.347Z,65.85
2018-12-15T04:52:47.043Z,66.32
2018-12-15T04:55:15.741Z,67.11
2018-12-15T04:57:44.517Z,67.16
2018-12-15T05:00:13.279Z,67.68
2018-12-15T05:02:44.058Z,67.50
2018-12-15T05:05:12.786Z,66.55
2018-12-15T05:07:41.479Z,70.53
2018-12-15T05:10:11.271Z,67.54
2018-12-15T05:12:39.960Z,67.26
2018-12-15T05:15:08.752Z,66.74
2018-12-15T05:17:37.460Z,66.81
2018-12-15T05:20:07.429Z,67.21
2018-12-15T05:22:36.306Z,66.36
2018-12-15T05:25:06.115Z,67.08
2018-12-15T05:27:34.843Z,67.25
2018-12-15T05:30:03.734Z,67.03
2018-12-15T05:32:32.465Z,67.71
2018-12-15T05:35:01.255Z,68.05
2018-12-15T05:37:30.099Z,67.76
2018-12-15T05:39:58.823Z,67.82
2018-12-15T05:42:27.571Z,67.74
2018-12-15T05:44:56.335Z,67.41
2018-12-15T05:47:25.083Z,67.12
2018-12-15T05:49:53.762Z,67.21
2018-12-15T05:52:22.458Z,67.09
2018-12-15T05:54:51.155Z,66.92
2018-12-15T05:57:19.914Z,66.60
2018-12-15T05:59:48.618Z,66.01
2018-12-15T06:02:18.119Z,67.11
2018-12-15T06:04:46.866Z,67.11
2018-12-15T06:07:15.586Z,67.29
2018-12-15T06:09:44.327Z,67.30
2018-12-15T06:12:13.091Z,66.47
2018-12-15T06:14:41.844Z,66.79
2018-12-15T06:17:10.675Z,67.67
2018-12-15T06:19:39.500Z,67.12
2018-12-15T06:22:08.263Z,66.79
2018-12-15T06:24:37.397Z,66.19
2018-12-15T06:27:06.119Z,66.54
2018-12-15T06:29:34.867Z,65.76
2018-12-15T06:32:03.699Z,66.03
2018-12-15T06:34:32.463Z,65.59
2018-12-15T06:37:01.166Z,65.72
2018-12-15T06:39:29.991Z,65.41
2018-12-15T06:41:58.756Z,65.35
2018-12-15T06:44:27.591Z,64.92
2018-12-15T06:46:56.287Z,65.00
2018-12-15T06:49:25.893Z,64.64
2018-12-15T06:51:54.591Z,64.00
2018-12-15T06:54:23.297Z,64.49
2018-12-15T06:56:51.990Z,64.18
2018-12-15T06:59:20.746Z,63.93
2018-12-15T07:01:49.523Z,64.16
2018-12-15T07:04:18.279Z,63.63
2018-12-15T07:06:47.039Z,63.87
2018-12-15T07:09:15.782Z,63.07
2018-12-15T07:11:44.526Z,63.58
2018-12-15T07:14:13.264Z,63.06
2018-12-15T07:16:41.991Z,63.39
2018-12-15T07:19:10.794Z,62.82
2018-12-15T07:21:39.531Z,62.83
2018-12-15T07:24:08.790Z,63.26
2018-12-15T07:26:37.596Z,63.56
2018-12-15T07:29:06.423Z,63.07
2018-12-15T07:31:35.206Z,62.86
2018-12-15T07:34:03.973Z,62.91
2018-12-15T07:36:32.831Z,63.76
2018-12-15T07:39:01.563Z,63.79
2018-12-15T07:41:31.274Z,64.10
2018-12-15T07:44:00.007Z,63.62
2018-12-15T07:46:28.678Z,63.45
2018-12-15T07:48:57.385Z,63.14
2018-12-15T07:51:26.119Z,63.27
2018-12-15T07:53:54.892Z,63.92
2018-12-15T07:56:26.797Z,63.54
2018-12-15T07:58:56.074Z,63.73
2018-12-15T08:01:24.778Z,63.19
2018-12-15T08:03:53.559Z,62.96
2018-12-15T08:06:22.283Z,63.55
2018-12-15T08:08:51.020Z,62.93
2018-12-15T08:11:25.200Z,62.70
2018-12-15T08:13:58.112Z,63.39
2018-12-15T08:16:26.907Z,62.38
2018-12-15T08:18:58.194Z,62.55
2018-12-15T08:21:26.954Z,62.70
2018-12-15T08:23:55.622Z,62.19
2018-12-15T08:26:25.451Z,61.99
2018-12-15T08:28:54.184Z,62.26
2018-12-15T08:31:22.910Z,61.82
2018-12-15T08:33:51.690Z,61.84
2018-12-15T08:36:20.354Z,62.48
2018-12-15T08:38:49.087Z,62.08
2018-12-15T08:41:17.972Z,61.80
2018-12-15T08:43:47.529Z,61.74
2018-12-15T08:46:17.578Z,61.54
2018-12-15T08:48:46.302Z,61.32
2018-12-15T08:51:15.254Z,61.78
2018-12-15T08:53:44.042Z,61.72
2018-12-15T08:56:12.770Z,62.37
2018-12-15T08:58:41.550Z,63.31
2018-12-15T09:01:10.299Z,63.14
2018-12-15T09:03:39.019Z,63.53
2018-12-15T09:06:07.767Z,64.17
2018-12-15T09:08:36.460Z,64.03
2018-12-15T09:11:05.193Z,64.32
2018-12-15T09:13:33.946Z,63.89
2018-12-15T09:16:02.675Z,64.20
2018-12-15T09:18:31.717Z,63.98
2018-12-15T09:21:00.434Z,64.48
2018-12-15T09:23:29.131Z,64.05
2018-12-15T09:25:57.878Z,64.25
2018-12-15T09:28:27.242Z,64.66
2018-12-15T09:30:56.032Z,64.63
2018-12-15T09:33:24.730Z,64.36
2018-12-15T09:35:53.471Z,64.76
2018-12-15T09:38:22.231Z,64.53
2018-12-15T09:40:50.972Z,64.23
2018-12-15T09:43:19.758Z,64.25
2018-12-15T09:45:48.415Z,65.07
2018-12-15T09:48:17.146Z,64.13
2018-12-15T09:50:46.455Z,64.67
2018-12-15T09:53:15.235Z,64.40
2018-12-15T09:55:43.998Z,64.28
2018-12-15T09:58:12.655Z,65.11
2018-12-15T10:00:41.359Z,64.21
2018-12-15T10:03:10.094Z,64.56
2018-12-15T10:05:38.814Z,64.63
2018-12-15T10:08:07.487Z,63.82
2018-12-15T10:10:36.211Z,63.46
2018-12-15T10:13:04.969Z,64.09
2018-12-15T10:15:33.700Z,63.38
2018-12-15T10:18:02.488Z,62.93
2018-12-15T10:20:31.244Z,63.46
2018-12-15T10:22:59.945Z,63.58
2018-12-15T10:25:28.646Z,63.20
2018-12-15T10:27:57.389Z,63.06
2018-12-15T10:30:31.582Z,62.81
2018-12-15T10:33:00.314Z,62.71
2018-12-15T10:35:29.062Z,62.91
2018-12-15T10:37:58.027Z,62.80
2018-12-15T10:40:26.806Z,63.03
2018-12-15T10:42:55.490Z,63.30
2018-12-15T10:45:24.245Z,62.85
2018-12-15T10:47:52.971Z,63.09
2018-12-15T10:50:21.656Z,61.92
2018-12-15T10:52:50.315Z,62.56
2018-12-15T10:55:19.034Z,62.46
2018-12-15T10:57:47.915Z,61.95
2018-12-15T11:00:23.029Z,61.96
2018-12-15T11:02:51.758Z,60.90
2018-12-15T11:05:20.511Z,61.55
2018-12-15T11:07:49.306Z,61.11
2018-12-15T11:10:18.206Z,61.12
2018-12-15T11:12:46.891Z,61.12
2018-12-15T11:15:15.626Z,61.37
2018-12-15T11:17:44.364Z,61.15
2018-12-15T11:20:13.166Z,61.46
2018-12-15T11:22:41.962Z,61.15
2018-12-15T11:25:10.723Z,60.46
2018-12-15T11:27:39.445Z,60.56
2018-12-15T11:30:08.198Z,60.47
2018-12-15T11:32:37.091Z,60.14
2018-12-15T11:35:06.114Z,59.99
2018-12-15T11:37:34.954Z,59.74
2018-12-15T11:40:03.831Z,59.04
2018-12-15T11:42:32.558Z,59.46
2018-12-15T11:45:01.267Z,58.26
2018-12-15T11:47:30.010Z,59.15
2018-12-15T11:49:58.747Z,59.00
2018-12-15T11:52:27.494Z,59.30
2018-12-15T11:54:56.202Z,58.75
2018-12-15T11:57:25.026Z,58.78
2018-12-15T11:59:53.791Z,58.50
2018-12-15T12:02:22.526Z,58.99
2018-12-15T12:04:51.279Z,58.62
2018-12-15T12:07:20.072Z,58.20
2018-12-15T12:09:48.799Z,58.86
2018-12-15T12:12:17.515Z,58.30
2018-12-15T12:14:46.238Z,58.62
2018-12-15T12:17:14.951Z,59.03
2018-12-15T12:19:50.028Z,58.92
2018-12-15T12:22:14.403Z,59.01
2018-12-15T12:24:43.111Z,58.45
2018-12-15T12:27:13.809Z,58.24
2018-12-15T12:29:43.577Z,57.83
2018-12-15T12:32:12.383Z,58.08
2018-12-15T12:34:41.074Z,57.80
2018-12-15T12:37:09.886Z,57.74
2018-12-15T12:39:38.628Z,58.11
2018-12-15T12:42:07.346Z,57.20
2018-12-15T12:44:36.738Z,57.71
2018-12-15T12:47:05.546Z,58.02
2018-12-15T12:49:34.318Z,58.01
2018-12-15T12:52:03.094Z,58.28
2018-12-15T12:54:31.850Z,57.84
2018-12-15T12:57:00.570Z,57.31
2018-12-15T12:59:31.323Z,57.67
2018-12-15T13:02:00.086Z,58.94
2018-12-15T13:04:28.742Z,58.71
2018-12-15T13:06:57.462Z,58.84
2018-12-15T13:09:26.196Z,58.22
2018-12-15T13:11:54.931Z,58.22
2018-12-15T13:14:23.714Z,58.60
2018-12-15T13:16:52.502Z,58.15
2018-12-15T13:19:21.203Z,58.24
2018-12-15T13:21:50.792Z,58.51
2018-12-15T13:24:19.522Z,58.93
2018-12-15T13:26:48.246Z,58.36
2018-12-15T13:29:16.956Z,58.42
2018-12-15T13:31:45.658Z,58.41
2018-12-15T13:34:14.410Z,58.39
2018-12-15T13:36:43.135Z,59.17
2018-12-15T13:39:11.946Z,58.81
2018-12-15T13:41:40.687Z,58.41
2018-12-15T13:44:10.046Z,58.00
2018-12-15T13:46:38.770Z,58.95
2018-12-15T13:49:07.500Z,57.88
2018-12-15T13:51:36.214Z,57.63
2018-12-15T13:54:04.931Z,58.70
2018-12-15T13:56:33.659Z,58.56
2018-12-15T13:59:02.390Z,57.20
2018-12-15T14:01:31.162Z,57.91
2018-12-15T14:03:59.882Z,58.10
2018-12-15T14:06:29.426Z,57.52
2018-12-15T14:08:58.154Z,57.99
2018-12-15T14:11:26.907Z,57.67
2018-12-15T14:13:55.652Z,58.06
2018-12-15T14:16:24.365Z,57.41
2018-12-15T14:18:53.102Z,57.29
2018-12-15T14:21:21.810Z,57.78
2018-12-15T14:23:50.527Z,57.17
2018-12-15T14:26:19.266Z,58.30
2018-12-15T14:28:49.006Z,56.92
2018-12-15T14:31:17.721Z,57.22
2018-12-15T14:33:46.411Z,57.20
2018-12-15T14:36:15.154Z,57.35
2018-12-15T14:38:43.905Z,57.37
2018-12-15T14:41:12.652Z,56.24
2018-12-15T14:43:41.416Z,57.17
2018-12-15T14:46:10.142Z,57.10
2018-12-15T14:48:38.839Z,57.50
2018-12-15T14:51:08.510Z,56.81
2018-12-15T14:53:37.255Z,56.78
2018-12-15T14:56:05.990Z,56.80
2018-12-15T14:58:34.743Z,57.71
2018-12-15T15:01:04.526Z,57.20
2018-12-15T15:03:33.219Z,57.55
2018-12-15T15:06:01.871Z,56.73
2018-12-15T15:08:30.691Z,57.48
2018-12-15T15:10:59.596Z,56.77
2018-12-15T15:13:34.328Z,57.25
2018-12-15T15:15:59.091Z,56.93
2018-12-15T15:18:27.805Z,56.37
2018-12-15T15:20:56.642Z,56.89
2018-12-15T15:23:25.311Z,57.09
2018-12-15T15:25:54.051Z,57.57
2018-12-15T15:28:22.797Z,56.71
2018-12-15T15:30:51.539Z,56.42
2018-12-15T15:33:20.200Z,56.20
2018-12-15T15:35:48.930Z,56.50
2018-12-15T15:38:17.657Z,56.31
2018-12-15T15:40:46.387Z,56.18
2018-12-15T15:43:15.070Z,55.19
2018-12-15T15:45:43.793Z,54.46
2018-12-15T15:48:12.482Z,55.15
2018-12-15T15:50:41.235Z,54.71
2018-12-15T15:53:10.059Z,54.47
2018-12-15T15:55:38.796Z,54.24
2018-12-15T15:58:07.541Z,54.10
2018-12-15T16:00:36.267Z,55.06
2018-12-15T16:03:05.042Z,53.97
2018-12-15T16:05:33.771Z,54.12
2018-12-15T16:08:02.424Z,54.02
2018-12-15T16:10:31.155Z,54.34
2018-12-15T16:12:59.883Z,54.34
2018-12-15T16:15:28.619Z,54.35
2018-12-15T16:17:57.442Z,54.34
2018-12-15T16:20:26.117Z,55.79
2018-12-15T16:22:54.843Z,55.21
2018-12-15T16:25:23.590Z,54.83
2018-12-15T16:27:52.302Z,55.25
2018-12-15T16:30:21.087Z,55.23
2018-12-15T16:32:49.819Z,54.61
2018-12-15T16:35:19.800Z,54.95
2018-12-15T16:37:48.732Z,54.70
2018-12-15T16:40:17.474Z,54.75
2018-12-15T16:42:46.214Z,54.33
2018-12-15T16:45:15.011Z,54.29
2018-12-15T16:47:43.763Z,54.10
2018-12-15T16:50:13.773Z,53.89
2018-12-15T16:52:42.787Z,53.86
2018-12-15T16:55:11.491Z,54.32
2018-12-15T16:57:41.262Z,54.38
2018-12-15T17:00:12.815Z,54.15
2018-12-15T17:02:41.513Z,54.54
2018-12-15T17:05:10.222Z,54.92
2018-12-15T17:07:38.962Z,55.74
2018-12-15T17:10:08.549Z,55.50
2018-12-15T17:12:37.282Z,55.82
2018-12-15T17:15:07.746Z,56.93
2018-12-15T17:17:37.538Z,56.97
2018-12-15T17:20:07.667Z,57.41
2018-12-15T17:22:37.403Z,58.05
2018-12-15T17:25:07.086Z,57.98
2018-12-15T17:27:35.822Z,57.64
2018-12-15T17:30:06.350Z,58.07
2018-12-15T17:32:36.194Z,58.66
2018-12-15T17:35:05.562Z,58.17
2018-12-15T17:37:35.384Z,58.20
2018-12-15T17:40:06.687Z,57.44
2018-12-15T17:42:35.463Z,57.40
2018-12-15T17:45:04.351Z,57.47
2018-12-15T17:47:33.098Z,56.28
2018-12-15T17:50:01.794Z,56.65
2018-12-15T17:52:30.514Z,56.06
2018-12-15T17:54:59.246Z,56.16
2018-12-15T17:57:27.979Z,55.76
2018-12-15T17:59:56.738Z,56.36
2018-12-15T18:02:26.119Z,58.38
2018-12-15T18:04:54.847Z,57.11
2018-12-15T18:07:23.582Z,56.23
2018-12-15T18:09:52.334Z,56.98
2018-12-15T18:12:21.078Z,55.93
2018-12-15T18:14:49.840Z,56.98
2018-12-15T18:17:18.543Z,57.53
2018-12-15T18:19:47.223Z,57.27
2018-12-15T18:22:15.955Z,56.57
2018-12-15T18:24:45.407Z,56.72
2018-12-15T18:27:14.090Z,55.95
2018-12-15T18:29:42.787Z,56.36
2018-12-15T18:32:11.602Z,56.34
2018-12-15T18:34:40.341Z,56.30
2018-12-15T18:37:09.089Z,55.88
2018-12-15T18:39:37.819Z,56.65
2018-12-15T18:42:10.827Z,57.68
2018-12-15T18:44:37.235Z,57.79
2018-12-15T18:47:05.934Z,58.02
2018-12-15T18:49:34.679Z,58.98
2018-12-15T18:52:03.467Z,58.00
2018-12-15T18:54:32.286Z,58.41
2018-12-15T18:57:01.091Z,58.30
2018-12-15T18:59:31.141Z,57.98
2018-12-15T19:01:59.895Z,58.99
2018-12-15T19:04:28.683Z,58.36
2018-12-15T19:06:57.351Z,56.92
2018-12-15T19:09:26.115Z,56.99
2018-12-15T19:11:55.927Z,56.95
2018-12-15T19:14:24.647Z,56.39
2018-12-15T19:16:53.419Z,55.93
2018-12-15T19:19:22.162Z,57.10
2018-12-15T19:21:50.843Z,56.40
2018-12-15T19:24:19.607Z,56.62
2018-12-15T19:26:48.326Z,57.39
2018-12-15T19:29:17.131Z,56.41
2018-12-15T19:31:45.883Z,56.36
2018-12-15T19:34:17.687Z,56.48
2018-12-15T19:36:45.918Z,56.03
2018-12-15T19:39:14.714Z,55.90
2018-12-15T19:41:43.456Z,56.18
2018-12-15T19:44:12.206Z,58.43
2018-12-15T19:46:40.934Z,57.11
2018-12-15T19:49:09.671Z,56.82
2018-12-15T19:51:38.394Z,56.51
2018-12-15T19:54:07.139Z,56.48
2018-12-15T19:56:36.874Z,56.39
2018-12-15T19:59:05.586Z,56.05
2018-12-15T20:01:34.311Z,56.03
2018-12-15T20:04:03.055Z,55.84
2018-12-15T20:06:32.547Z,55.73
2018-12-15T20:09:01.226Z,55.38
2018-12-15T20:11:29.994Z,55.78
2018-12-15T20:13:58.646Z,55.47
2018-12-15T20:16:27.439Z,55.89
2018-12-15T20:18:56.154Z,55.21
2018-12-15T20:21:24.882Z,55.43
2018-12-15T20:23:53.735Z,55.43
2018-12-15T20:26:22.487Z,55.62
2018-12-15T20:28:51.186Z,55.75
2018-12-15T20:31:19.912Z,56.04
2018-12-15T20:33:48.586Z,55.07
2018-12-15T20:36:17.342Z,55.30
2018-12-15T20:38:46.054Z,54.92
2018-12-15T20:41:14.755Z,55.37
2018-12-15T20:43:43.514Z,55.46
2018-12-15T20:46:12.259Z,54.53
2018-12-15T20:48:40.995Z,56.25
2018-12-15T20:51:09.719Z,55.64
2018-12-15T20:53:38.472Z,56.03
2018-12-15T20:56:07.208Z,56.17
2018-12-15T20:58:35.969Z,55.43
2018-12-15T21:01:04.806Z,55.81
2018-12-15T21:03:33.535Z,55.16
2018-12-15T21:06:02.300Z,56.71
2018-12-15T21:08:31.039Z,57.40
2018-12-15T21:10:59.822Z,57.20
2018-12-15T21:13:28.528Z,56.56
2018-12-15T21:15:58.413Z,55.91
2018-12-15T21:18:27.205Z,56.16
2018-12-15T21:20:55.931Z,56.31
2018-12-15T21:23:24.707Z,56.16
2018-12-15T21:25:53.442Z,57.14
2018-12-15T21:28:22.162Z,56.26
2018-12-15T21:30:50.834Z,56.25
2018-12-15T21:33:19.590Z,56.12
2018-12-15T21:35:48.322Z,56.97
2018-12-15T21:38:17.066Z,56.18
2018-12-15T21:40:45.845Z,57.17
2018-12-15T21:43:14.578Z,56.39
2018-12-15T21:45:43.320Z,56.03
2018-12-15T21:48:12.112Z,55.36
2018-12-15T21:50:40.899Z,55.67
2018-12-15T21:53:09.556Z,56.50
2018-12-15T21:55:38.307Z,57.42
2018-12-15T21:58:07.058Z,57.61
2018-12-15T22:00:35.766Z,56.48
2018-12-15T22:03:04.582Z,56.54
2018-12-15T22:05:33.275Z,55.53
2018-12-15T22:08:01.971Z,56.06
2018-12-15T22:10:31.100Z,55.91
2018-12-15T22:12:59.894Z,55.99
2018-12-15T22:15:28.654Z,56.08
2018-12-15T22:17:57.382Z,55.47
2018-12-15T22:20:26.117Z,55.74
2018-12-15T22:22:54.800Z,54.83
2018-12-15T22:25:23.530Z,55.29
2018-12-15T22:27:52.211Z,54.96
2018-12-15T22:30:20.915Z,56.38
2018-12-15T22:32:50.318Z,55.95
2018-12-15T22:35:19.029Z,55.04
2018-12-15T22:37:47.839Z,56.09
2018-12-15T22:40:17.632Z,56.15
2018-12-15T22:42:46.345Z,55.63
2018-12-15T22:45:15.052Z,55.75
2018-12-15T22:47:43.802Z,56.18
2018-12-15T22:50:12.564Z,55.83
2018-12-15T22:52:41.362Z,55.45
2018-12-15T22:55:10.585Z,55.59
2018-12-15T22:57:39.374Z,55.63
2018-12-15T23:00:10.511Z,55.98
2018-12-15T23:02:41.135Z,56.44
2018-12-15T23:05:10.041Z,56.43
2018-12-15T23:07:38.765Z,56.11
2018-12-15T23:10:08.214Z,55.68
2018-12-15T23:12:36.983Z,55.26
2018-12-15T23:15:06.764Z,55.68
2018-12-15T23:17:35.479Z,56.19
2018-12-15T23:20:05.514Z,55.55
2018-12-15T23:22:34.238Z,55.52
2018-12-15T23:25:03.010Z,55.19
2018-12-15T23:27:31.678Z,55.51
2018-12-15T23:30:00.407Z,55.19
2018-12-15T23:32:29.076Z,55.02
2018-12-15T23:34:57.819Z,56.06
2018-12-15T23:37:26.530Z,54.86
2018-12-15T23:39:55.242Z,55.23
2018-12-15T23:42:23.986Z,56.39
2018-12-15T23:44:52.803Z,55.64
2018-12-15T23:47:21.476Z,55.36
2018-12-15T23:49:50.186Z,56.04
2018-12-15T23:52:23.287Z,56.79
2018-12-15T23:54:49.643Z,56.50
2018-12-15T23:57:18.414Z,55.57
2018-12-15T23:59:47.070Z,55.12
